Time;durP1;ratioP1;P1;durP2;ratioP2;P2;SDS_P1;SDS_P2;PMS_P1;PMS_P2;Temp;Humidity;BMP_temperature;BMP_pressure;BME280_temperature;BME280_humidity;BME280_pressure;Samples;Min_cycle;Max_cycle;Signal;HPM_P1;HPM_P2
2022/02/23 00:01:30;;;;;;;21.63;3.03;;;5.90;99.90;;;;;;5066596;28;20044;-68
2022/02/23 00:03:56;;;;;;;17.50;3.25;;;5.90;99.90;;;;;;5068761;28;20078;-67
2022/02/23 00:06:21;;;;;;;29.52;4.20;;;5.80;99.90;;;;;;5068371;28;20072;-67
2022/02/23 00:08:47;;;;;;;24.13;3.70;;;5.80;99.90;;;;;;5071295;28;20025;-67
2022/02/23 00:11:12;;;;;;;26.95;4.82;;;5.90;99.90;;;;;;5069778;28;20040;-67
2022/02/23 00:13:38;;;;;;;27.40;3.65;;;5.80;99.90;;;;;;5071852;28;20048;-67
2022/02/23 00:16:05;;;;;;;24.15;3.88;;;5.80;99.90;;;;;;5069541;28;20068;-67
2022/02/23 00:18:31;;;;;;;21.90;3.60;;;5.90;99.90;;;;;;5069992;28;20036;-67
2022/02/23 00:20:57;;;;;;;23.33;3.72;;;5.80;99.90;;;;;;5066948;28;20041;-67
2022/02/23 00:23:23;;;;;;;19.83;3.38;;;5.80;99.90;;;;;;5070513;28;20036;-67
2022/02/23 00:25:49;;;;;;;17.13;2.95;;;5.80;99.90;;;;;;5069887;28;20481;-67
2022/02/23 00:28:15;;;;;;;18.85;3.10;;;5.80;99.90;;;;;;5068998;28;20047;-67
2022/02/23 00:30:41;;;;;;;23.77;3.08;;;5.80;99.90;;;;;;5069520;28;20077;-67
2022/02/23 00:33:08;;;;;;;20.10;4.53;;;5.70;99.90;;;;;;5095674;28;20047;-67
2022/02/23 00:35:33;;;;;;;14.57;3.10;;;5.70;99.90;;;;;;5070434;28;20040;-67
2022/02/23 00:37:59;;;;;;;21.27;3.45;;;5.70;99.90;;;;;;5065455;28;20043;-67
2022/02/23 00:40:24;;;;;;;21.17;4.13;;;5.70;99.90;;;;;;5067525;28;20048;-67
2022/02/23 00:42:55;;;;;;;19.23;3.67;;;5.70;99.90;;;;;;5066938;28;20066;-67
2022/02/23 00:45:20;;;;;;;22.48;3.38;;;5.60;99.90;;;;;;5070292;28;20036;-67
2022/02/23 00:47:46;;;;;;;21.05;3.08;;;5.60;99.90;;;;;;5068189;28;20403;-67
2022/02/23 00:50:12;;;;;;;22.40;3.13;;;5.60;99.90;;;;;;5065509;28;20131;-67
2022/02/23 00:52:37;;;;;;;23.35;3.67;;;5.60;99.90;;;;;;5067844;28;20495;-67
2022/02/23 00:55:04;;;;;;;25.42;3.45;;;5.50;99.90;;;;;;5065144;28;20510;-66
2022/02/23 00:57:29;;;;;;;21.90;2.65;;;5.50;99.90;;;;;;5067072;28;20048;-67
2022/02/23 00:59:55;;;;;;;18.42;3.47;;;5.50;99.90;;;;;;5064591;28;20089;-66
2022/02/23 01:02:21;;;;;;;23.10;3.83;;;5.50;99.90;;;;;;5068055;28;20037;-66
2022/02/23 01:04:47;;;;;;;24.90;3.45;;;5.50;99.90;;;;;;5066233;28;20039;-66
2022/02/23 01:07:14;;;;;;;19.25;2.83;;;5.40;99.90;;;;;;5064144;28;20036;-66
2022/02/23 01:09:40;;;;;;;25.52;3.35;;;5.50;99.90;;;;;;5065561;28;20045;-67
2022/02/23 01:12:06;;;;;;;23.83;3.80;;;5.40;99.90;;;;;;5065979;28;20093;-67
2022/02/23 01:14:31;;;;;;;20.98;4.18;;;5.40;99.90;;;;;;5065721;28;20044;-66
2022/02/23 01:16:58;;;;;;;24.90;3.40;;;5.40;99.90;;;;;;5066341;28;20066;-66
2022/02/23 01:19:24;;;;;;;23.48;3.85;;;5.40;99.90;;;;;;5092284;28;20441;-66
2022/02/23 01:21:50;;;;;;;26.83;3.33;;;5.30;99.90;;;;;;5067354;28;20041;-67
2022/02/23 01:24:16;;;;;;;28.17;4.20;;;5.30;99.90;;;;;;5068214;28;20387;-67
2022/02/23 01:26:41;;;;;;;18.27;2.45;;;5.40;99.90;;;;;;5066308;28;20522;-67
2022/02/23 01:29:07;;;;;;;22.10;4.35;;;5.40;99.90;;;;;;5063376;28;20074;-67
2022/02/23 01:31:33;;;;;;;26.55;3.67;;;5.30;99.90;;;;;;5067045;28;20044;-66
2022/02/23 01:33:59;;;;;;;22.50;2.95;;;5.30;99.90;;;;;;5067078;28;20045;-66
2022/02/23 01:36:24;;;;;;;28.52;3.30;;;5.40;99.90;;;;;;5065327;28;20953;-67
2022/02/23 01:38:50;;;;;;;29.17;4.60;;;5.40;99.90;;;;;;5069144;28;20048;-66
2022/02/23 01:41:19;;;;;;;24.55;2.97;;;5.30;99.90;;;;;;5064968;28;20040;-66
2022/02/23 01:43:47;;;;;;;28.80;3.40;;;5.30;99.90;;;;;;5067175;28;20044;-66
2022/02/23 01:46:14;;;;;;;24.13;3.03;;;5.30;99.90;;;;;;5066863;28;20127;-67
2022/02/23 01:48:40;;;;;;;24.25;4.05;;;5.30;99.90;;;;;;5065920;28;20040;-67
2022/02/23 01:51:05;;;;;;;23.00;3.15;;;5.20;99.90;;;;;;5066242;28;20036;-66
2022/02/23 01:53:31;;;;;;;28.98;4.13;;;5.30;99.90;;;;;;5068311;28;20051;-66
2022/02/23 01:55:57;;;;;;;23.02;3.22;;;5.30;99.90;;;;;;5095175;28;20097;-66
2022/02/23 01:58:23;;;;;;;25.42;3.83;;;5.30;99.90;;;;;;5094209;28;20076;-66
2022/02/23 02:00:48;;;;;;;27.33;3.95;;;5.30;99.90;;;;;;5063623;28;20040;-66
2022/02/23 02:03:14;;;;;;;26.92;3.42;;;5.30;99.90;;;;;;5067336;28;20078;-66
2022/02/23 02:05:40;;;;;;;21.70;4.88;;;5.20;99.90;;;;;;5065699;28;20671;-67
2022/02/23 02:08:06;;;;;;;23.70;3.30;;;5.20;99.90;;;;;;5063710;28;20035;-66
2022/02/23 02:10:31;;;;;;;22.33;3.05;;;5.20;99.90;;;;;;5066376;28;21298;-66
2022/02/23 02:12:57;;;;;;;18.88;3.53;;;5.20;99.90;;;;;;5051177;28;20036;-67
2022/02/23 02:15:23;;;;;;;25.85;3.65;;;5.20;99.90;;;;;;5066005;28;20044;-66
2022/02/23 02:17:48;;;;;;;24.10;3.95;;;5.20;99.90;;;;;;5063415;28;20037;-67
2022/02/23 02:20:14;;;;;;;22.58;2.75;;;5.20;99.90;;;;;;5062057;28;20037;-66
2022/02/23 02:22:40;;;;;;;26.48;3.88;;;5.10;99.90;;;;;;5069717;28;20749;-66
2022/02/23 02:25:06;;;;;;;23.75;3.53;;;5.10;99.90;;;;;;5073220;28;20520;-66
2022/02/23 02:27:32;;;;;;;17.05;3.35;;;5.10;99.90;;;;;;5068881;28;21302;-67
2022/02/23 02:29:59;;;;;;;27.63;3.47;;;5.10;99.90;;;;;;5068121;28;20032;-66
2022/02/23 02:32:25;;;;;;;24.73;4.28;;;5.10;99.90;;;;;;5068865;28;20040;-66
2022/02/23 02:35:17;;;;;;;19.65;3.85;;;5.10;99.90;;;;;;5068954;28;20040;-66
2022/02/23 02:37:43;;;;;;;19.25;3.15;;;5.10;99.90;;;;;;5073023;28;20137;-66
2022/02/23 02:40:09;;;;;;;25.73;3.92;;;5.00;99.90;;;;;;5067801;28;20079;-67
2022/02/23 02:42:35;;;;;;;22.10;3.22;;;5.00;99.90;;;;;;5073998;28;20090;-66
2022/02/23 02:45:01;;;;;;;26.58;3.75;;;4.90;99.90;;;;;;5068123;28;20036;-67
2022/02/23 02:47:27;;;;;;;25.55;3.28;;;4.90;99.90;;;;;;5070861;28;20445;-66
2022/02/23 02:49:52;;;;;;;19.33;3.50;;;4.90;99.90;;;;;;5071688;28;20147;-66
2022/02/23 02:52:18;;;;;;;22.83;4.07;;;4.90;99.90;;;;;;5069650;28;20082;-66
2022/02/23 02:54:43;;;;;;;24.35;3.10;;;4.90;99.90;;;;;;5070745;28;20044;-66
2022/02/23 02:57:09;;;;;;;23.55;3.42;;;4.90;99.90;;;;;;5066128;28;20399;-66
2022/02/23 02:59:38;;;;;;;25.20;5.28;;;4.90;99.90;;;;;;5068648;28;20097;-66
2022/02/23 03:02:04;;;;;;;38.22;5.05;;;4.90;99.90;;;;;;5066642;28;20037;-66
2022/02/23 03:04:29;;;;;;;17.50;2.90;;;4.90;99.90;;;;;;5072290;28;20028;-67
2022/02/23 03:06:55;;;;;;;29.08;3.97;;;4.80;99.90;;;;;;5069252;28;20368;-67
2022/02/23 03:09:21;;;;;;;30.38;3.85;;;4.80;99.90;;;;;;5068083;28;20032;-66
2022/02/23 03:11:46;;;;;;;29.25;4.50;;;4.90;99.90;;;;;;5068142;28;20094;-66
2022/02/23 03:14:12;;;;;;;33.58;5.25;;;4.90;99.90;;;;;;5070710;28;20098;-67
2022/02/23 03:16:37;;;;;;;20.48;3.05;;;4.90;99.90;;;;;;5069685;28;20135;-66
2022/02/23 03:19:03;;;;;;;23.88;3.35;;;4.90;99.90;;;;;;5069725;28;20440;-67
2022/02/23 03:21:29;;;;;;;26.55;3.88;;;4.90;99.90;;;;;;5065354;28;20068;-67
2022/02/23 03:23:55;;;;;;;25.23;4.60;;;4.90;99.90;;;;;;5068906;28;20100;-67
2022/02/23 03:26:20;;;;;;;30.73;4.28;;;4.90;99.90;;;;;;5068715;28;20044;-67
2022/02/23 03:28:46;;;;;;;22.83;3.75;;;4.90;99.90;;;;;;5069768;28;20086;-67
2022/02/23 03:31:12;;;;;;;28.83;4.03;;;4.90;99.90;;;;;;5068817;28;20045;-66
2022/02/23 03:33:42;;;;;;;28.92;3.42;;;4.90;99.90;;;;;;5069026;28;20031;-67
2022/02/23 03:36:10;;;;;;;25.65;3.85;;;4.90;99.90;;;;;;5069813;28;20047;-66
2022/02/23 03:38:36;;;;;;;25.50;3.33;;;4.90;99.90;;;;;;5068319;28;20048;-66
2022/02/23 03:41:02;;;;;;;26.75;3.95;;;4.90;99.90;;;;;;5069067;28;20041;-66
2022/02/23 03:43:28;;;;;;;29.17;4.50;;;4.80;99.90;;;;;;5071351;28;20063;-66
2022/02/23 03:45:53;;;;;;;21.13;3.55;;;4.90;99.90;;;;;;5071397;28;20032;-67
2022/02/23 03:48:19;;;;;;;30.65;3.80;;;4.90;99.90;;;;;;5069288;28;20079;-66
2022/02/23 03:50:45;;;;;;;23.45;3.67;;;4.80;99.90;;;;;;5066020;28;20048;-66
2022/02/23 03:53:10;;;;;;;33.65;4.95;;;4.90;99.90;;;;;;5067544;28;20033;-66
2022/02/23 03:55:36;;;;;;;21.85;3.55;;;4.90;99.90;;;;;;5068564;28;20064;-66
2022/02/23 03:58:02;;;;;;;22.02;2.97;;;4.90;99.90;;;;;;5069587;28;20072;-66
2022/02/23 04:00:27;;;;;;;25.23;4.07;;;4.80;99.90;;;;;;5070414;28;20090;-66
2022/02/23 04:02:53;;;;;;;21.30;2.83;;;4.90;99.90;;;;;;5069732;28;20501;-66
2022/02/23 04:05:19;;;;;;;21.67;3.30;;;4.80;99.90;;;;;;5067312;28;20029;-66
2022/02/23 04:07:45;;;;;;;26.60;3.35;;;4.80;99.90;;;;;;5067915;28;20113;-66
2022/02/23 04:10:11;;;;;;;23.67;3.67;;;4.80;99.90;;;;;;5074862;28;20052;-66
2022/02/23 04:12:36;;;;;;;24.55;3.58;;;4.80;99.90;;;;;;5070203;28;20033;-66
2022/02/23 04:15:02;;;;;;;26.00;3.20;;;4.80;99.90;;;;;;5088941;28;20048;-66
2022/02/23 04:17:28;;;;;;;26.20;4.57;;;4.80;99.90;;;;;;5068198;28;20037;-67
2022/02/23 04:19:53;;;;;;;26.77;3.28;;;4.80;99.90;;;;;;5066564;28;20387;-66
2022/02/23 04:22:19;;;;;;;22.48;2.72;;;4.80;99.90;;;;;;5069325;28;20131;-67
2022/02/23 04:24:45;;;;;;;20.40;3.80;;;4.70;99.90;;;;;;5068906;28;20052;-66
2022/02/23 04:27:10;;;;;;;22.13;2.75;;;4.80;99.90;;;;;;5068189;28;20051;-66
2022/02/23 04:29:36;;;;;;;27.95;3.50;;;4.80;99.90;;;;;;5071258;28;20028;-66
2022/02/23 04:32:02;;;;;;;22.15;2.97;;;4.70;99.90;;;;;;5067250;28;20056;-66
2022/02/23 04:34:27;;;;;;;25.10;3.05;;;4.70;99.90;;;;;;5073666;28;20048;-66
2022/02/23 04:36:53;;;;;;;23.58;3.40;;;4.80;99.90;;;;;;5067368;28;20076;-66
2022/02/23 04:39:19;;;;;;;29.42;3.22;;;4.80;99.90;;;;;;5065915;28;20036;-67
2022/02/23 04:41:45;;;;;;;22.30;3.20;;;4.70;99.90;;;;;;5070722;28;20040;-66
2022/02/23 04:44:11;;;;;;;27.67;2.75;;;4.70;99.90;;;;;;5066711;28;20044;-67
2022/02/23 04:46:36;;;;;;;19.83;2.80;;;4.70;99.90;;;;;;5071222;28;20127;-67
2022/02/23 04:49:03;;;;;;;20.38;3.30;;;4.60;99.90;;;;;;5065850;28;20094;-67
2022/02/23 04:51:30;;;;;;;24.60;3.63;;;4.70;99.90;;;;;;5067500;28;20048;-68
2022/02/23 04:54:00;;;;;;;20.58;3.05;;;4.60;99.90;;;;;;5068842;28;20044;-68
2022/02/23 04:56:26;;;;;;;28.00;3.22;;;4.60;99.90;;;;;;5069309;28;20127;-68
2022/02/23 04:58:53;;;;;;;18.98;2.63;;;4.60;99.90;;;;;;5071266;28;20683;-68
2022/02/23 05:01:18;;;;;;;42.83;4.50;;;4.50;99.90;;;;;;5064282;28;20442;-68
2022/02/23 05:03:44;;;;;;;30.25;3.33;;;4.60;99.90;;;;;;5071013;28;20044;-68
2022/02/23 05:06:10;;;;;;;20.25;3.17;;;4.60;99.90;;;;;;5069276;28;20131;-67
2022/02/23 05:08:36;;;;;;;26.35;3.63;;;4.60;99.90;;;;;;5096763;28;20555;-68
2022/02/23 05:11:02;;;;;;;22.35;2.75;;;4.60;99.90;;;;;;5065742;28;20550;-68
2022/02/23 05:13:29;;;;;;;30.60;2.97;;;4.60;99.90;;;;;;5066678;28;20040;-67
2022/02/23 05:15:57;;;;;;;26.38;3.67;;;4.60;99.90;;;;;;5070207;28;20040;-67
2022/02/23 05:18:29;;;;;;;24.52;3.72;;;4.50;99.90;;;;;;5066844;28;20040;-68
2022/02/23 05:20:58;;;;;;;21.63;2.85;;;4.60;99.90;;;;;;5093321;28;20453;-67
2022/02/23 05:23:24;;;;;;;27.80;3.65;;;4.50;99.90;;;;;;5072038;28;20357;-68
2022/02/23 05:25:51;;;;;;;25.50;3.35;;;4.50;99.90;;;;;;5064436;28;20036;-67
2022/02/23 05:28:17;;;;;;;22.52;3.45;;;4.50;99.90;;;;;;5051100;28;20033;-67
2022/02/23 05:30:43;;;;;;;21.00;2.90;;;4.40;99.90;;;;;;5069806;28;20033;-67
2022/02/23 05:33:09;;;;;;;24.60;2.75;;;4.50;99.90;;;;;;5066789;28;20039;-67
2022/02/23 05:35:34;;;;;;;22.35;3.22;;;4.40;99.90;;;;;;5065439;28;20082;-67
2022/02/23 05:38:00;;;;;;;26.33;4.38;;;4.40;99.90;;;;;;5079040;28;20506;-67
2022/02/23 05:40:26;;;;;;;25.17;3.22;;;4.40;99.90;;;;;;5063182;28;21374;-67
2022/02/23 05:42:54;;;;;;;24.10;3.60;;;4.30;99.90;;;;;;5063027;28;20075;-67
2022/02/23 05:45:20;;;;;;;16.55;2.15;;;4.30;99.90;;;;;;5064693;28;20060;-67
2022/02/23 05:47:46;;;;;;;17.27;3.17;;;4.30;99.90;;;;;;5067318;28;20051;-67
2022/02/23 05:50:12;;;;;;;22.20;3.42;;;4.20;99.90;;;;;;5065365;28;20032;-67
2022/02/23 05:52:37;;;;;;;18.38;3.65;;;4.10;99.90;;;;;;5065071;28;20044;-67
2022/02/23 05:55:04;;;;;;;19.08;3.30;;;4.20;99.90;;;;;;5065554;28;20037;-67
2022/02/23 05:57:31;;;;;;;26.10;3.50;;;4.20;99.90;;;;;;5069832;28;20112;-67
2022/02/23 05:59:57;;;;;;;16.75;3.15;;;4.20;99.90;;;;;;5068867;28;20036;-66
2022/02/23 06:02:23;;;;;;;21.73;3.30;;;4.10;99.90;;;;;;5067444;28;20126;-67
2022/02/23 06:04:48;;;;;;;22.08;3.00;;;4.20;99.90;;;;;;5068857;28;20111;-67
2022/02/23 06:07:15;;;;;;;22.33;4.28;;;4.10;99.90;;;;;;5069516;28;20165;-67
2022/02/23 06:09:40;;;;;;;23.33;3.33;;;4.00;99.90;;;;;;5069198;28;20143;-67
2022/02/23 06:12:06;;;;;;;26.63;3.55;;;4.00;99.90;;;;;;5068824;28;20581;-66
2022/02/23 06:14:32;;;;;;;24.58;3.70;;;4.00;99.90;;;;;;5070315;28;20060;-66
2022/02/23 06:16:58;;;;;;;20.23;3.15;;;4.00;99.90;;;;;;5098604;28;20080;-66
2022/02/23 06:19:24;;;;;;;20.92;2.50;;;4.00;99.90;;;;;;5071823;28;20525;-67
2022/02/23 06:21:49;;;;;;;23.27;3.60;;;3.90;99.90;;;;;;5052538;28;20045;-66
2022/02/23 06:24:16;;;;;;;20.75;2.70;;;3.90;99.90;;;;;;5068950;28;20113;-67
2022/02/23 06:26:42;;;;;;;19.42;2.35;;;3.90;99.90;;;;;;5065807;28;20719;-67
2022/02/23 06:29:07;;;;;;;27.17;4.13;;;3.90;99.90;;;;;;5070784;28;20041;-67
2022/02/23 06:31:33;;;;;;;18.90;2.83;;;3.90;99.90;;;;;;5063543;28;20066;-68
2022/02/23 06:33:59;;;;;;;22.80;3.40;;;3.90;99.90;;;;;;5076069;28;21668;-67
2022/02/23 06:36:25;;;;;;;21.00;3.30;;;3.80;99.90;;;;;;5072806;28;20044;-68
2022/02/23 06:38:50;;;;;;;21.40;2.90;;;3.80;99.90;;;;;;5065383;28;20079;-68
2022/02/23 06:41:21;;;;;;;22.10;2.88;;;3.80;99.90;;;;;;5069638;28;20067;-68
2022/02/23 06:43:47;;;;;;;29.83;3.75;;;3.80;99.90;;;;;;5070600;28;20418;-68
2022/02/23 06:46:14;;;;;;;16.58;2.78;;;3.80;99.90;;;;;;5070036;28;20046;-68
2022/02/23 06:48:40;;;;;;;23.65;2.90;;;3.80;99.90;;;;;;5069483;28;20028;-68
2022/02/23 06:51:07;;;;;;;23.30;3.40;;;3.80;99.90;;;;;;5068249;28;20651;-67
2022/02/23 06:53:34;;;;;;;15.82;2.85;;;3.80;99.90;;;;;;5067793;28;20037;-67
2022/02/23 06:56:00;;;;;;;20.70;2.85;;;3.90;99.90;;;;;;5069135;28;20505;-67
2022/02/23 06:58:28;;;;;;;25.52;2.88;;;3.90;99.90;;;;;;5064718;28;20045;-67
2022/02/23 07:00:54;;;;;;;28.95;4.35;;;3.90;99.90;;;;;;5066420;28;20816;-67
2022/02/23 07:03:20;;;;;;;21.95;2.80;;;3.90;99.90;;;;;;5083901;28;20483;-67
2022/02/23 07:05:46;;;;;;;27.92;2.78;;;3.90;99.90;;;;;;5068413;28;20032;-67
2022/02/23 07:08:12;;;;;;;18.42;2.50;;;4.00;99.90;;;;;;5059174;28;20044;-67
2022/02/23 07:10:38;;;;;;;17.45;2.88;;;4.00;99.90;;;;;;5066417;28;20032;-67
2022/02/23 07:13:06;;;;;;;17.42;2.13;;;4.00;99.90;;;;;;5064309;28;20036;-67
2022/02/23 07:15:34;;;;;;;14.52;2.63;;;4.00;99.90;;;;;;5065899;28;20044;-67
2022/02/23 07:18:00;;;;;;;17.63;2.92;;;4.10;99.90;;;;;;5060467;28;20040;-67
2022/02/23 07:20:26;;;;;;;21.52;2.67;;;4.10;99.90;;;;;;5061665;28;20102;-67
2022/02/23 07:22:53;;;;;;;17.08;3.40;;;4.20;99.90;;;;;;5095402;28;20109;-67
2022/02/23 07:25:19;;;;;;;14.27;2.90;;;4.20;99.90;;;;;;5067854;28;20487;-67
2022/02/23 07:27:45;;;;;;;18.95;2.55;;;4.30;99.90;;;;;;5095975;28;20094;-67
2022/02/23 07:30:16;;;;;;;26.67;3.47;;;4.30;99.90;;;;;;5061430;28;20523;-67
2022/02/23 07:32:42;;;;;;;14.25;2.65;;;4.40;99.90;;;;;;5066244;28;20044;-67
2022/02/23 07:35:14;;;;;;;16.80;3.25;;;4.50;99.90;;;;;;5068122;28;20043;-67
2022/02/23 07:37:44;;;;;;;18.95;2.92;;;4.50;99.90;;;;;;5066021;28;20582;-67
2022/02/23 07:40:22;;;;;;;19.55;2.42;;;4.60;99.90;;;;;;5063135;28;20486;-67
2022/02/23 07:42:48;;;;;;;27.60;3.90;;;4.60;99.90;;;;;;5062604;28;20045;-67
2022/02/23 07:45:14;;;;;;;24.77;3.00;;;4.60;99.90;;;;;;5066436;28;20044;-67
2022/02/23 07:47:40;;;;;;;23.85;3.17;;;4.60;99.90;;;;;;5063383;28;20044;-67
2022/02/23 07:50:11;;;;;;;19.35;2.78;;;4.70;99.90;;;;;;5063019;28;20105;-67
2022/02/23 07:52:38;;;;;;;21.70;2.78;;;4.80;99.90;;;;;;5064718;28;20040;-67
2022/02/23 07:55:05;;;;;;;16.02;2.42;;;4.90;99.90;;;;;;5065508;28;20041;-67
2022/02/23 07:57:31;;;;;;;21.13;2.40;;;4.90;99.90;;;;;;5064672;28;20032;-67
2022/02/23 07:59:57;;;;;;;21.13;3.03;;;5.00;99.90;;;;;;5065949;28;20040;-67
2022/02/23 08:02:23;;;;;;;22.15;3.97;;;5.10;99.90;;;;;;5066184;28;20041;-67
2022/02/23 08:04:52;;;;;;;19.92;3.42;;;5.10;99.90;;;;;;5065189;28;20364;-67
2022/02/23 08:07:21;;;;;;;19.45;2.55;;;5.10;99.90;;;;;;5070311;28;20036;-67
2022/02/23 08:09:48;;;;;;;16.95;3.00;;;5.20;99.90;;;;;;5065445;28;20040;-67
2022/02/23 08:12:14;;;;;;;14.07;2.75;;;5.30;99.90;;;;;;5065230;28;20036;-67
2022/02/23 08:14:40;;;;;;;23.98;3.78;;;5.30;99.90;;;;;;5062326;28;20052;-67
2022/02/23 08:19:54;;;;;;;26.17;4.90;;;5.40;99.90;;;;;;5060380;28;20048;-67
2022/02/23 08:22:27;;;;;;;25.98;3.03;;;5.40;99.90;;;;;;5051103;28;20390;-67
2022/02/23 08:24:54;;;;;;;24.92;3.70;;;5.50;99.90;;;;;;5064829;28;20036;-67
2022/02/23 08:27:21;;;;;;;25.20;5.57;;;5.50;99.90;;;;;;5061746;28;20041;-66
2022/02/23 08:29:48;;;;;;;22.33;4.78;;;5.60;99.90;;;;;;5064434;28;20036;-67
2022/02/23 08:32:16;;;;;;;20.90;5.78;;;5.70;99.90;;;;;;5060843;28;20052;-67
2022/02/23 08:34:44;;;;;;;26.75;7.47;;;5.70;99.90;;;;;;5062647;28;20042;-68
2022/02/23 08:37:10;;;;;;;26.25;8.32;;;5.70;99.90;;;;;;5065065;28;20095;-67
2022/02/23 08:39:37;;;;;;;32.45;9.65;;;5.80;99.90;;;;;;5069738;28;20056;-67
2022/02/23 08:42:04;;;;;;;34.33;10.55;;;5.80;99.90;;;;;;5067797;28;20051;-67
2022/02/23 08:44:30;;;;;;;37.60;11.02;;;5.90;99.90;;;;;;5061764;28;20119;-67
2022/02/23 08:46:56;;;;;;;30.30;9.80;;;6.00;99.90;;;;;;5090627;28;20119;-68
2022/02/23 08:49:22;;;;;;;36.53;10.77;;;6.00;99.90;;;;;;5064161;28;20487;-68
2022/02/23 08:51:48;;;;;;;37.50;11.70;;;6.10;99.90;;;;;;5059896;28;20042;-68
2022/02/23 08:54:18;;;;;;;44.35;12.50;;;6.10;99.90;;;;;;5060667;28;20037;-67
2022/02/23 08:56:44;;;;;;;41.67;11.07;;;6.10;99.90;;;;;;5060720;28;20095;-67
2022/02/23 08:59:11;;;;;;;40.75;12.50;;;6.20;99.90;;;;;;5060815;28;20036;-68
2022/02/23 09:01:37;;;;;;;30.02;11.38;;;6.20;99.90;;;;;;5064411;28;21649;-67
2022/02/23 09:04:03;;;;;;;35.70;9.43;;;6.30;99.90;;;;;;5047456;28;20087;-67
2022/02/23 09:06:32;;;;;;;29.40;8.82;;;6.40;99.90;;;;;;5061228;28;20495;-67
2022/02/23 09:08:58;;;;;;;32.90;7.63;;;6.40;99.90;;;;;;5067602;28;20047;-67
2022/02/23 09:11:24;;;;;;;30.05;6.93;;;6.50;99.90;;;;;;5063111;28;20470;-67
2022/02/23 09:13:51;;;;;;;24.48;5.35;;;6.60;99.90;;;;;;5065336;28;20040;-67
2022/02/23 09:16:17;;;;;;;24.88;4.93;;;6.70;99.90;;;;;;5062557;28;20044;-67
2022/02/23 09:18:44;;;;;;;24.95;5.22;;;6.70;99.90;;;;;;5062773;28;20044;-67
2022/02/23 09:21:10;;;;;;;16.70;4.70;;;6.90;99.90;;;;;;5060243;28;20041;-67
2022/02/23 09:23:36;;;;;;;23.42;5.18;;;7.10;99.90;;;;;;5065249;28;20473;-67
2022/02/23 09:26:04;;;;;;;23.42;5.13;;;7.10;99.90;;;;;;5064718;28;20062;-67
2022/02/23 09:28:34;;;;;;;16.60;3.97;;;7.30;99.90;;;;;;5065582;28;20051;-67
2022/02/23 09:31:00;;;;;;;18.17;4.38;;;7.40;99.90;;;;;;5064115;28;20032;-67
2022/02/23 09:33:26;;;;;;;17.17;4.18;;;7.50;99.90;;;;;;5065594;28;20044;-67
2022/02/23 09:35:52;;;;;;;23.35;4.57;;;7.50;99.90;;;;;;5065079;28;20481;-67
2022/02/23 09:38:18;;;;;;;22.42;4.70;;;7.50;99.90;;;;;;5067288;28;20044;-67
2022/02/23 09:40:48;;;;;;;17.80;3.70;;;7.60;99.90;;;;;;5080987;28;20036;-67
2022/02/23 09:43:15;;;;;;;15.38;3.88;;;7.60;99.90;;;;;;5078648;28;20082;-67
2022/02/23 09:45:43;;;;;;;21.98;3.28;;;7.70;99.90;;;;;;5064375;28;20094;-67
2022/02/23 09:48:10;;;;;;;19.73;3.53;;;7.80;99.90;;;;;;5064890;28;20593;-67
2022/02/23 09:50:36;;;;;;;22.50;3.20;;;7.80;99.90;;;;;;5047939;28;20385;-67
2022/02/23 09:53:02;;;;;;;18.02;3.42;;;7.90;99.90;;;;;;5061586;28;20040;-67
2022/02/23 09:55:29;;;;;;;18.60;3.95;;;7.90;99.90;;;;;;5070203;28;20070;-67
2022/02/23 09:57:55;;;;;;;15.77;3.17;;;8.00;99.90;;;;;;5067940;28;20072;-67
2022/02/23 10:00:22;;;;;;;18.52;3.72;;;8.10;99.90;;;;;;5064980;28;20048;-67
2022/02/23 10:02:47;;;;;;;21.65;4.05;;;8.10;99.90;;;;;;5066407;28;20123;-67
2022/02/23 10:05:16;;;;;;;15.93;3.10;;;8.10;99.90;;;;;;5060997;28;20048;-67
2022/02/23 10:07:42;;;;;;;23.17;5.63;;;8.30;99.90;;;;;;5063143;28;20113;-67
2022/02/23 10:10:10;;;;;;;16.83;3.03;;;8.30;99.90;;;;;;5092340;28;20051;-67
2022/02/23 10:12:37;;;;;;;15.95;3.22;;;8.40;99.90;;;;;;5060911;28;20036;-67
2022/02/23 10:15:13;;;;;;;18.08;2.50;;;8.40;99.90;;;;;;5065754;28;20149;-67
2022/02/23 10:17:44;;;;;;;16.80;3.83;;;8.50;99.90;;;;;;5063777;28;20140;-67
2022/02/23 10:20:28;;;;;;;20.40;3.38;;;8.60;99.90;;;;;;5094893;28;20037;-67
2022/02/23 10:23:05;;;;;;;22.08;4.05;;;8.70;99.90;;;;;;5044805;28;20041;-67
2022/02/23 10:25:35;;;;;;;19.83;3.30;;;8.70;99.90;;;;;;5065999;28;20044;-67
2022/02/23 10:28:07;;;;;;;16.65;3.40;;;8.80;99.90;;;;;;5064483;28;20076;-67
2022/02/23 10:30:34;;;;;;;15.68;2.60;;;8.90;99.90;;;;;;5062474;28;20574;-67
2022/02/23 10:33:20;;;;;;;12.95;2.25;;;8.90;99.90;;;;;;5066918;28;20044;-67
2022/02/23 10:35:50;;;;;;;18.27;4.50;;;9.00;99.90;;;;;;5056873;28;20594;-67
2022/02/23 10:38:27;;;;;;;17.42;2.92;;;9.10;99.90;;;;;;5093858;28;20469;-67
2022/02/23 10:40:55;;;;;;;11.60;2.33;;;9.20;99.90;;;;;;5065685;28;20547;-66
2022/02/23 10:43:29;;;;;;;11.02;2.85;;;9.20;99.90;;;;;;5060136;28;20082;-66
2022/02/23 10:46:16;;;;;;;19.40;3.27;;;9.20;99.90;;;;;;5061516;28;20032;-67
2022/02/23 10:48:48;;;;;;;16.75;3.28;;;9.30;99.90;;;;;;5068382;28;20036;-67
2022/02/23 10:51:22;;;;;;;15.13;3.58;;;9.40;99.90;;;;;;5069719;28;20037;-66
2022/02/23 10:53:51;;;;;;;15.93;3.03;;;9.50;99.90;;;;;;5072399;28;20044;-67
2022/02/23 10:56:22;;;;;;;18.60;3.38;;;9.60;99.90;;;;;;5068786;28;20094;-67
2022/02/23 10:59:01;;;;;;;17.83;3.28;;;9.60;99.90;;;;;;5067898;28;20041;-67
2022/02/23 11:01:28;;;;;;;17.48;3.17;;;9.70;99.90;;;;;;5100578;28;20044;-67
2022/02/23 11:03:54;;;;;;;17.65;2.80;;;9.80;99.90;;;;;;5063342;28;20175;-67
2022/02/23 11:06:21;;;;;;;14.57;3.03;;;9.90;99.90;;;;;;5069958;28;20025;-67
2022/02/23 11:08:49;;;;;;;13.40;2.40;;;10.00;99.90;;;;;;5067314;28;20037;-67
2022/02/23 11:11:19;;;;;;;15.60;2.22;;;10.10;99.90;;;;;;5070032;28;20036;-67
2022/02/23 11:13:46;;;;;;;16.27;3.08;;;10.00;99.90;;;;;;5069810;28;20060;-67
2022/02/23 11:16:12;;;;;;;17.48;2.28;;;10.10;99.90;;;;;;5066998;28;20036;-67
2022/02/23 11:18:41;;;;;;;13.55;2.88;;;10.20;99.90;;;;;;5101374;28;20048;-67
2022/02/23 11:21:10;;;;;;;11.88;2.35;;;10.20;99.90;;;;;;5064809;28;20606;-67
2022/02/23 11:23:37;;;;;;;8.15;1.95;;;10.30;99.90;;;;;;5072371;28;20032;-67
2022/02/23 11:26:05;;;;;;;14.23;2.03;;;10.40;99.90;;;;;;5069808;28;20536;-67
2022/02/23 11:28:34;;;;;;;11.10;2.08;;;10.40;99.90;;;;;;5068484;28;20055;-67
2022/02/23 11:31:04;;;;;;;13.07;2.78;;;10.50;99.90;;;;;;5069711;28;20544;-67
2022/02/23 11:33:55;;;;;;;15.95;3.53;;;10.50;99.90;;;;;;5068057;28;20514;-67
2022/02/23 11:36:52;;;;;;;10.52;2.00;;;10.70;99.90;;;;;;5059675;28;20059;-67
2022/02/23 11:39:15;;;;;;;10.98;2.00;;;10.70;99.90;;;;;;5066147;28;20755;-67
2022/02/23 11:41:46;;;;;;;8.80;1.90;;;10.80;99.90;;;;;;5067631;28;20135;-67
2022/02/23 11:44:15;;;;;;;11.90;2.00;;;10.90;99.90;;;;;;5066701;28;20044;-67
2022/02/23 11:46:56;;;;;;;11.00;1.75;;;11.00;99.90;;;;;;5100434;28;20044;-67
2022/02/23 11:49:27;;;;;;;10.82;2.30;;;11.10;99.90;;;;;;5066583;28;20041;-67
2022/02/23 11:52:11;;;;;;;7.63;1.40;;;11.20;99.90;;;;;;5062412;28;20048;-67
2022/02/23 11:54:57;;;;;;;7.07;1.50;;;11.20;99.90;;;;;;5064283;28;20040;-67
2022/02/23 11:57:47;;;;;;;5.05;1.10;;;11.20;99.90;;;;;;5066931;28;20486;-67
2022/02/23 12:00:29;;;;;;;10.65;1.73;;;11.40;99.90;;;;;;5080463;28;20511;-67
2022/02/23 12:03:30;;;;;;;7.97;1.77;;;11.40;99.90;;;;;;5060189;28;20087;-67
2022/02/23 12:06:06;;;;;;;10.10;1.63;;;11.40;99.90;;;;;;5065477;28;20067;-68
2022/02/23 12:08:31;;;;;;;7.53;1.92;;;11.30;99.90;;;;;;5062138;28;20032;-67
2022/02/23 12:11:10;;;;;;;6.88;1.35;;;11.20;99.90;;;;;;5064771;28;20040;-67
2022/02/23 12:13:42;;;;;;;5.60;1.67;;;11.30;99.90;;;;;;5066564;28;20114;-67
2022/02/23 12:16:22;;;;;;;6.43;1.20;;;11.40;99.90;;;;;;5066350;28;20770;-67
2022/02/23 12:18:49;;;;;;;10.77;1.48;;;11.40;99.90;;;;;;5065088;28;20364;-68
2022/02/23 12:21:15;;;;;;;9.52;2.45;;;11.50;99.90;;;;;;5095303;28;20646;-67
2022/02/23 12:23:44;;;;;;;8.15;1.85;;;11.50;99.90;;;;;;5064132;28;20675;-67
2022/02/23 12:26:12;;;;;;;5.90;1.33;;;11.60;99.40;;;;;;5065066;28;20040;-67
2022/02/23 12:28:39;;;;;;;7.55;1.20;;;11.60;99.90;;;;;;5063551;28;20090;-67
2022/02/23 12:31:08;;;;;;;5.03;1.27;;;11.60;99.10;;;;;;5067260;28;20041;-67
2022/02/23 12:33:36;;;;;;;4.85;1.35;;;11.70;99.90;;;;;;5065842;28;20036;-68
2022/02/23 12:36:08;;;;;;;5.15;0.98;;;11.70;95.70;;;;;;5066171;28;20119;-67
2022/02/23 12:38:48;;;;;;;4.90;1.10;;;11.70;96.90;;;;;;5065349;28;20040;-67
2022/02/23 12:41:20;;;;;;;5.13;1.08;;;11.70;96.10;;;;;;5069360;28;20081;-66
2022/02/23 12:43:57;;;;;;;5.90;1.33;;;11.60;94.90;;;;;;5061794;28;20414;-67
2022/02/23 12:46:23;;;;;;;6.40;1.00;;;11.60;95.40;;;;;;5060473;28;20053;-67
2022/02/23 12:48:49;;;;;;;4.32;0.80;;;11.70;95.60;;;;;;5065196;28;20047;-67
2022/02/23 12:51:18;;;;;;;10.40;1.52;;;11.50;94.40;;;;;;5060791;28;20127;-67